sensor_id;sensor_type;location;lat;lon;timestamp;temperature;humidity
38604;DHT22;24924;50.054;8.790;2022-07-17T06:37:09;16.90;99.90
38604;DHT22;24924;50.054;8.790;2022-07-17T06:39:35;17.20;99.90
38604;DHT22;24924;50.054;8.790;2022-07-17T06:42:01;17.40;99.70
38604;DHT22;24924;50.054;8.790;2022-07-17T06:44:27;17.60;99.90
38604;DHT22;24924;50.054;8.790;2022-07-17T06:46:53;17.80;99.90
38604;DHT22;24924;50.054;8.790;2022-07-17T06:49:19;18.00;99.80
38604;DHT22;24924;50.054;8.790;2022-07-17T06:51:45;18.10;99.00
38604;DHT22;24924;50.054;8.790;2022-07-17T06:54:12;18.20;98.20
38604;DHT22;24924;50.054;8.790;2022-07-17T06:56:38;18.40;97.50
38604;DHT22;24924;50.054;8.790;2022-07-17T06:59:04;18.50;97.30
38604;DHT22;24924;50.054;8.790;2022-07-17T07:01:34;18.50;98.40
38604;DHT22;24924;50.054;8.790;2022-07-17T07:04:00;18.70;97.50
38604;DHT22;24924;50.054;8.790;2022-07-17T07:06:26;18.80;96.50
38604;DHT22;24924;50.054;8.790;2022-07-17T07:08:52;19.00;95.80
38604;DHT22;24924;50.054;8.790;2022-07-17T07:11:18;19.20;96.30
38604;DHT22;24924;50.054;8.790;2022-07-17T07:13:43;19.20;96.50
38604;DHT22;24924;50.054;8.790;2022-07-17T07:16:09;19.20;96.30
38604;DHT22;24924;50.054;8.790;2022-07-17T07:18:36;19.40;96.20
38604;DHT22;24924;50.054;8.790;2022-07-17T07:21:02;19.50;95.70
38604;DHT22;24924;50.054;8.790;2022-07-17T07:23:28;19.70;95.00
38604;DHT22;24924;50.054;8.790;2022-07-17T07:25:54;19.90;95.10
38604;DHT22;24924;50.054;8.790;2022-07-17T07:28:20;20.00;94.40
38604;DHT22;24924;50.054;8.790;2022-07-17T07:30:46;20.20;95.70
38604;DHT22;24924;50.054;8.790;2022-07-17T07:33:12;20.40;93.70
38604;DHT22;24924;50.054;8.790;2022-07-17T07:35:37;20.60;94.00
38604;DHT22;24924;50.054;8.790;2022-07-17T07:38:03;20.60;94.90
38604;DHT22;24924;50.054;8.790;2022-07-17T07:40:29;20.70;93.60
38604;DHT22;24924;50.054;8.790;2022-07-17T07:42:56;20.70;93.00
38604;DHT22;24924;50.054;8.790;2022-07-17T07:45:22;20.80;93.60
38604;DHT22;24924;50.054;8.790;2022-07-17T07:47:49;21.20;93.70
38604;DHT22;24924;50.054;8.790;2022-07-17T07:50:16;21.30;92.80
38604;DHT22;24924;50.054;8.790;2022-07-17T07:52:42;21.30;92.70
38604;DHT22;24924;50.054;8.790;2022-07-17T07:55:09;21.40;91.70
38604;DHT22;24924;50.054;8.790;2022-07-17T07:57:35;21.30;91.90
38604;DHT22;24924;50.054;8.790;2022-07-17T08:00:04;21.40;93.20
38604;DHT22;24924;50.054;8.790;2022-07-17T08:02:38;21.50;91.70
38604;DHT22;24924;50.054;8.790;2022-07-17T08:05:04;21.60;91.50
38604;DHT22;24924;50.054;8.790;2022-07-17T08:07:30;21.60;91.00
38604;DHT22;24924;50.054;8.790;2022-07-17T08:09:56;21.70;90.80
38604;DHT22;24924;50.054;8.790;2022-07-17T08:12:23;22.00;90.40
38604;DHT22;24924;50.054;8.790;2022-07-17T08:14:50;22.20;91.80
38604;DHT22;24924;50.054;8.790;2022-07-17T08:17:16;22.40;90.80
38604;DHT22;24924;50.054;8.790;2022-07-17T08:19:43;22.30;90.80
38604;DHT22;24924;50.054;8.790;2022-07-17T08:22:09;22.30;90.20
38604;DHT22;24924;50.054;8.790;2022-07-17T08:24:35;22.50;91.30
38604;DHT22;24924;50.054;8.790;2022-07-17T08:27:00;22.70;90.80
38604;DHT22;24924;50.054;8.790;2022-07-17T08:29:26;22.90;89.80
38604;DHT22;24924;50.054;8.790;2022-07-17T08:31:52;23.00;88.70
38604;DHT22;24924;50.054;8.790;2022-07-17T08:34:19;23.00;89.50
38604;DHT22;24924;50.054;8.790;2022-07-17T08:36:45;23.00;87.70
38604;DHT22;24924;50.054;8.790;2022-07-17T08:39:11;23.00;86.90
38604;DHT22;24924;50.054;8.790;2022-07-17T08:41:37;23.20;86.90
38604;DHT22;24924;50.054;8.790;2022-07-17T08:44:07;23.10;84.70
38604;DHT22;24924;50.054;8.790;2022-07-17T08:46:38;23.20;87.90
38604;DHT22;24924;50.054;8.790;2022-07-17T08:49:06;23.30;85.80
38604;DHT22;24924;50.054;8.790;2022-07-17T08:51:33;23.50;83.40
38604;DHT22;24924;50.054;8.790;2022-07-17T08:54:00;23.50;82.50
38604;DHT22;24924;50.054;8.790;2022-07-17T08:56:27;23.70;82.20
38604;DHT22;24924;50.054;8.790;2022-07-17T08:58:54;23.80;84.20
38604;DHT22;24924;50.054;8.790;2022-07-17T09:01:21;24.20;84.10
38604;DHT22;24924;50.054;8.790;2022-07-17T09:03:58;24.30;83.00
38604;DHT22;24924;50.054;8.790;2022-07-17T09:06:25;24.20;78.80
38604;DHT22;24924;50.054;8.790;2022-07-17T09:09:10;24.30;82.90
38604;DHT22;24924;50.054;8.790;2022-07-17T09:11:47;24.20;78.70
38604;DHT22;24924;50.054;8.790;2022-07-17T09:14:14;24.20;79.20
38604;DHT22;24924;50.054;8.790;2022-07-17T09:16:51;24.30;77.90
38604;DHT22;24924;50.054;8.790;2022-07-17T09:19:28;24.40;80.10
38604;DHT22;24924;50.054;8.790;2022-07-17T09:22:08;24.60;80.40
38604;DHT22;24924;50.054;8.790;2022-07-17T09:24:57;24.90;77.40
38604;DHT22;24924;50.054;8.790;2022-07-17T09:29:59;25.20;75.40
38604;DHT22;24924;50.054;8.790;2022-07-17T09:32:29;25.40;76.60
38604;DHT22;24924;50.054;8.790;2022-07-17T09:34:57;25.20;78.90
38604;DHT22;24924;50.054;8.790;2022-07-17T09:37:25;25.40;79.80
38604;DHT22;24924;50.054;8.790;2022-07-17T09:39:52;25.60;76.50
38604;DHT22;24924;50.054;8.790;2022-07-17T09:42:28;25.10;73.40
38604;DHT22;24924;50.054;8.790;2022-07-17T09:45:05;23.20;73.80
38604;DHT22;24924;50.054;8.790;2022-07-17T09:47:38;24.30;75.30
38604;DHT22;24924;50.054;8.790;2022-07-17T09:50:07;24.60;75.50
38604;DHT22;24924;50.054;8.790;2022-07-17T09:52:35;24.80;75.80
38604;DHT22;24924;50.054;8.790;2022-07-17T09:55:02;25.20;76.90
38604;DHT22;24924;50.054;8.790;2022-07-17T09:57:31;25.60;75.50
38604;DHT22;24924;50.054;8.790;2022-07-17T10:00:15;25.80;74.20
38604;DHT22;24924;50.054;8.790;2022-07-17T10:02:43;25.80;75.20
38604;DHT22;24924;50.054;8.790;2022-07-17T10:05:11;26.10;72.30
38604;DHT22;24924;50.054;8.790;2022-07-17T10:07:41;26.00;72.50
38604;DHT22;24924;50.054;8.790;2022-07-17T10:10:11;26.10;74.60
38604;DHT22;24924;50.054;8.790;2022-07-17T10:12:39;26.30;71.00
38604;DHT22;24924;50.054;8.790;2022-07-17T10:15:06;26.30;70.80
38604;DHT22;24924;50.054;8.790;2022-07-17T10:17:32;26.30;71.00
38604;DHT22;24924;50.054;8.790;2022-07-17T10:19:57;26.50;71.60
38604;DHT22;24924;50.054;8.790;2022-07-17T10:22:24;26.80;73.20
38604;DHT22;24924;50.054;8.790;2022-07-17T10:24:55;26.80;73.70
38604;DHT22;24924;50.054;8.790;2022-07-17T10:27:27;27.10;72.60
38604;DHT22;24924;50.054;8.790;2022-07-17T10:30:04;27.40;71.30
38604;DHT22;24924;50.054;8.790;2022-07-17T10:35:05;27.30;69.50
38604;DHT22;24924;50.054;8.790;2022-07-17T10:37:38;27.40;71.30
38604;DHT22;24924;50.054;8.790;2022-07-17T10:42:54;27.60;69.20
38604;DHT22;24924;50.054;8.790;2022-07-17T10:45:31;27.60;69.50
38604;DHT22;24924;50.054;8.790;2022-07-17T10:48:17;27.60;67.40
38604;DHT22;24924;50.054;8.790;2022-07-17T10:50:45;27.70;67.00
38604;DHT22;24924;50.054;8.790;2022-07-17T10:53:23;27.80;67.30
38604;DHT22;24924;50.054;8.790;2022-07-17T10:56:20;28.10;65.90
38604;DHT22;24924;50.054;8.790;2022-07-17T10:58:46;28.30;66.80
38604;DHT22;24924;50.054;8.790;2022-07-17T11:01:14;28.40;65.50
38604;DHT22;24924;50.054;8.790;2022-07-17T11:03:49;28.40;66.10
38604;DHT22;24924;50.054;8.790;2022-07-17T11:08:47;28.50;63.30
38604;DHT22;24924;50.054;8.790;2022-07-17T11:11:13;28.60;61.60
38604;DHT22;24924;50.054;8.790;2022-07-17T11:13:39;28.30;60.10
38604;DHT22;24924;50.054;8.790;2022-07-17T11:16:05;28.10;59.80
38604;DHT22;24924;50.054;8.790;2022-07-17T11:18:31;28.50;62.60
38604;DHT22;24924;50.054;8.790;2022-07-17T11:20:59;28.60;63.00
38604;DHT22;24924;50.054;8.790;2022-07-17T11:23:28;28.30;62.10
38604;DHT22;24924;50.054;8.790;2022-07-17T11:26:05;28.40;60.60
38604;DHT22;24924;50.054;8.790;2022-07-17T11:28:39;28.50;61.40
38604;DHT22;24924;50.054;8.790;2022-07-17T11:31:16;28.30;56.80
38604;DHT22;24924;50.054;8.790;2022-07-17T11:33:47;28.20;58.50
38604;DHT22;24924;50.054;8.790;2022-07-17T11:36:20;28.10;60.60
38604;DHT22;24924;50.054;8.790;2022-07-17T11:38:47;28.70;59.30
38604;DHT22;24924;50.054;8.790;2022-07-17T11:41:12;28.90;59.40
38604;DHT22;24924;50.054;8.790;2022-07-17T11:43:40;29.20;61.10
38604;DHT22;24924;50.054;8.790;2022-07-17T11:46:06;29.00;60.30
38604;DHT22;24924;50.054;8.790;2022-07-17T11:48:33;29.20;61.00
38604;DHT22;24924;50.054;8.790;2022-07-17T11:53:34;29.10;55.00
38604;DHT22;24924;50.054;8.790;2022-07-17T11:58:27;29.30;60.10
38604;DHT22;24924;50.054;8.790;2022-07-17T12:01:03;29.40;55.20
38604;DHT22;24924;50.054;8.790;2022-07-17T12:03:29;29.20;54.00
38604;DHT22;24924;50.054;8.790;2022-07-17T12:05:55;29.20;54.80
38604;DHT22;24924;50.054;8.790;2022-07-17T12:08:22;29.40;57.20
38604;DHT22;24924;50.054;8.790;2022-07-17T12:11:07;29.30;52.90
38604;DHT22;24924;50.054;8.790;2022-07-17T12:13:38;29.00;53.60
38604;DHT22;24924;50.054;8.790;2022-07-17T12:16:23;29.00;55.00
38604;DHT22;24924;50.054;8.790;2022-07-17T12:19:01;29.10;56.70
38604;DHT22;24924;50.054;8.790;2022-07-17T12:21:31;29.30;54.40
38604;DHT22;24924;50.054;8.790;2022-07-17T12:24:02;29.40;56.00
38604;DHT22;24924;50.054;8.790;2022-07-17T12:26:29;29.50;55.80
38604;DHT22;24924;50.054;8.790;2022-07-17T12:28:55;29.80;57.00
38604;DHT22;24924;50.054;8.790;2022-07-17T12:31:21;30.00;52.90
38604;DHT22;24924;50.054;8.790;2022-07-17T12:33:51;30.20;54.20
38604;DHT22;24924;50.054;8.790;2022-07-17T12:36:19;30.30;54.50
38604;DHT22;24924;50.054;8.790;2022-07-17T12:38:45;30.50;54.70
38604;DHT22;24924;50.054;8.790;2022-07-17T12:41:11;30.50;51.80
38604;DHT22;24924;50.054;8.790;2022-07-17T12:43:37;30.50;52.40
38604;DHT22;24924;50.054;8.790;2022-07-17T12:46:03;30.50;51.10
38604;DHT22;24924;50.054;8.790;2022-07-17T12:48:29;30.50;53.10
38604;DHT22;24924;50.054;8.790;2022-07-17T12:50:55;30.30;49.90
38604;DHT22;24924;50.054;8.790;2022-07-17T12:53:21;30.30;52.50
38604;DHT22;24924;50.054;8.790;2022-07-17T12:55:47;30.40;53.50
38604;DHT22;24924;50.054;8.790;2022-07-17T12:58:12;30.40;51.80
38604;DHT22;24924;50.054;8.790;2022-07-17T13:00:38;30.40;50.40
38604;DHT22;24924;50.054;8.790;2022-07-17T13:03:04;30.40;53.10
38604;DHT22;24924;50.054;8.790;2022-07-17T13:05:30;30.50;52.60
38604;DHT22;24924;50.054;8.790;2022-07-17T13:07:56;30.70;51.60
38604;DHT22;24924;50.054;8.790;2022-07-17T13:10:22;30.80;53.20
38604;DHT22;24924;50.054;8.790;2022-07-17T13:12:48;30.60;51.00
38604;DHT22;24924;50.054;8.790;2022-07-17T13:15:14;30.70;50.40
38604;DHT22;24924;50.054;8.790;2022-07-17T13:17:40;30.60;50.00
38604;DHT22;24924;50.054;8.790;2022-07-17T13:20:07;30.90;51.60
38604;DHT22;24924;50.054;8.790;2022-07-17T13:22:32;31.20;51.20
38604;DHT22;24924;50.054;8.790;2022-07-17T13:24:58;31.30;50.60
38604;DHT22;24924;50.054;8.790;2022-07-17T13:27:24;31.40;52.30
38604;DHT22;24924;50.054;8.790;2022-07-17T13:29:50;31.50;51.80
38604;DHT22;24924;50.054;8.790;2022-07-17T13:32:16;31.70;53.50
38604;DHT22;24924;50.054;8.790;2022-07-17T13:34:42;31.60;53.10
38604;DHT22;24924;50.054;8.790;2022-07-17T13:37:08;31.70;51.80
38604;DHT22;24924;50.054;8.790;2022-07-17T13:39:35;31.70;53.10
38604;DHT22;24924;50.054;8.790;2022-07-17T13:42:02;32.00;53.60
38604;DHT22;24924;50.054;8.790;2022-07-17T13:44:28;31.90;51.80
38604;DHT22;24924;50.054;8.790;2022-07-17T13:46:54;31.70;51.70
38604;DHT22;24924;50.054;8.790;2022-07-17T13:49:19;31.60;51.40
38604;DHT22;24924;50.054;8.790;2022-07-17T13:51:47;31.90;53.10
38604;DHT22;24924;50.054;8.790;2022-07-17T13:54:13;32.00;52.50
38604;DHT22;24924;50.054;8.790;2022-07-17T13:56:39;32.20;52.70
38604;DHT22;24924;50.054;8.790;2022-07-17T13:59:05;33.90;52.00
38604;DHT22;24924;50.054;8.790;2022-07-17T14:01:31;32.40;51.00
38604;DHT22;24924;50.054;8.790;2022-07-17T14:04:00;32.30;51.20
38604;DHT22;24924;50.054;8.790;2022-07-17T14:06:26;32.10;50.80
38604;DHT22;24924;50.054;8.790;2022-07-17T14:08:52;32.50;51.90
38604;DHT22;24924;50.054;8.790;2022-07-17T14:11:18;32.70;51.80
38604;DHT22;24924;50.054;8.790;2022-07-17T14:13:44;32.80;51.30
38604;DHT22;24924;50.054;8.790;2022-07-17T14:16:10;32.60;50.30
38604;DHT22;24924;50.054;8.790;2022-07-17T14:18:36;32.40;49.20
38604;DHT22;24924;50.054;8.790;2022-07-17T14:21:21;32.20;48.80
38604;DHT22;24924;50.054;8.790;2022-07-17T14:23:47;32.10;49.30
38604;DHT22;24924;50.054;8.790;2022-07-17T14:26:13;32.60;49.50
38604;DHT22;24924;50.054;8.790;2022-07-17T14:28:39;32.80;49.00
38604;DHT22;24924;50.054;8.790;2022-07-17T14:31:05;33.20;49.80
38604;DHT22;24924;50.054;8.790;2022-07-17T14:33:30;33.20;48.50
38604;DHT22;24924;50.054;8.790;2022-07-17T14:35:56;33.60;48.00
38604;DHT22;24924;50.054;8.790;2022-07-17T14:38:22;34.30;46.30
38604;DHT22;24924;50.054;8.790;2022-07-17T14:40:48;34.00;48.10
38604;DHT22;24924;50.054;8.790;2022-07-17T14:43:14;34.10;47.30
38604;DHT22;24924;50.054;8.790;2022-07-17T14:45:40;34.30;47.70
38604;DHT22;24924;50.054;8.790;2022-07-17T14:48:06;34.30;45.40
38604;DHT22;24924;50.054;8.790;2022-07-17T14:50:31;34.10;46.70
38604;DHT22;24924;50.054;8.790;2022-07-17T14:52:57;34.90;46.20
38604;DHT22;24924;50.054;8.790;2022-07-17T14:55:23;35.20;46.60
38604;DHT22;24924;50.054;8.790;2022-07-17T14:57:49;35.20;45.60
38604;DHT22;24924;50.054;8.790;2022-07-17T15:00:15;35.50;45.90
38604;DHT22;24924;50.054;8.790;2022-07-17T15:02:41;34.90;45.60
38604;DHT22;24924;50.054;8.790;2022-07-17T15:05:08;34.70;46.50
38604;DHT22;24924;50.054;8.790;2022-07-17T15:07:33;35.10;43.80
38604;DHT22;24924;50.054;8.790;2022-07-17T15:09:59;35.50;42.30
38604;DHT22;24924;50.054;8.790;2022-07-17T15:12:25;35.30;43.10
38604;DHT22;24924;50.054;8.790;2022-07-17T15:14:51;35.20;42.10
38604;DHT22;24924;50.054;8.790;2022-07-17T15:17:17;35.30;44.70
38604;DHT22;24924;50.054;8.790;2022-07-17T15:19:42;35.70;42.60
38604;DHT22;24924;50.054;8.790;2022-07-17T15:22:08;36.10;41.40
38604;DHT22;24924;50.054;8.790;2022-07-17T15:24:34;35.70;42.10
38604;DHT22;24924;50.054;8.790;2022-07-17T15:27:00;35.70;41.20
38604;DHT22;24924;50.054;8.790;2022-07-17T15:29:26;36.20;42.80
38604;DHT22;24924;50.054;8.790;2022-07-17T15:31:51;36.00;44.80
38604;DHT22;24924;50.054;8.790;2022-07-17T15:34:17;36.20;42.70
38604;DHT22;24924;50.054;8.790;2022-07-17T15:36:43;36.10;41.80
38604;DHT22;24924;50.054;8.790;2022-07-17T15:39:09;36.90;41.00
38604;DHT22;24924;50.054;8.790;2022-07-17T15:41:35;35.80;41.00
38604;DHT22;24924;50.054;8.790;2022-07-17T15:44:01;35.50;42.20
38604;DHT22;24924;50.054;8.790;2022-07-17T15:46:27;36.10;43.60
38604;DHT22;24924;50.054;8.790;2022-07-17T15:48:54;36.50;42.90
38604;DHT22;24924;50.054;8.790;2022-07-17T15:51:20;36.70;41.90
38604;DHT22;24924;50.054;8.790;2022-07-17T15:53:46;35.70;43.30
38604;DHT22;24924;50.054;8.790;2022-07-17T15:56:11;36.00;42.00
38604;DHT22;24924;50.054;8.790;2022-07-17T15:58:38;36.20;43.00
38604;DHT22;24924;50.054;8.790;2022-07-17T16:01:04;36.30;41.90
38604;DHT22;24924;50.054;8.790;2022-07-17T16:03:30;36.20;42.00
38604;DHT22;24924;50.054;8.790;2022-07-17T16:05:56;35.90;41.80
38604;DHT22;24924;50.054;8.790;2022-07-17T16:08:22;37.50;41.20
38604;DHT22;24924;50.054;8.790;2022-07-17T16:10:48;37.30;42.00
38604;DHT22;24924;50.054;8.790;2022-07-17T16:13:13;37.50;41.30
38604;DHT22;24924;50.054;8.790;2022-07-17T16:15:39;37.70;41.00
38604;DHT22;24924;50.054;8.790;2022-07-17T16:18:05;37.30;44.50
38604;DHT22;24924;50.054;8.790;2022-07-17T16:20:31;38.00;40.60
38604;DHT22;24924;50.054;8.790;2022-07-17T16:22:56;37.00;41.40
38604;DHT22;24924;50.054;8.790;2022-07-17T16:25:22;38.20;42.20
38604;DHT22;24924;50.054;8.790;2022-07-17T16:27:48;38.30;40.50
38604;DHT22;24924;50.054;8.790;2022-07-17T16:30:14;37.50;41.80
38604;DHT22;24924;50.054;8.790;2022-07-17T16:32:40;37.10;40.90
38604;DHT22;24924;50.054;8.790;2022-07-17T16:35:06;36.30;41.60
38604;DHT22;24924;50.054;8.790;2022-07-17T16:37:32;36.30;42.10
38604;DHT22;24924;50.054;8.790;2022-07-17T16:39:58;36.50;41.90
38604;DHT22;24924;50.054;8.790;2022-07-17T16:42:24;36.50;43.00
38604;DHT22;24924;50.054;8.790;2022-07-17T16:44:50;36.30;42.00
38604;DHT22;24924;50.054;8.790;2022-07-17T16:47:15;36.30;42.20
38604;DHT22;24924;50.054;8.790;2022-07-17T16:49:41;36.30;41.80
38604;DHT22;24924;50.054;8.790;2022-07-17T16:52:07;36.30;44.50
38604;DHT22;24924;50.054;8.790;2022-07-17T16:54:33;36.30;41.90
38604;DHT22;24924;50.054;8.790;2022-07-17T16:56:58;36.50;41.50
38604;DHT22;24924;50.054;8.790;2022-07-17T16:59:24;35.90;45.00
38604;DHT22;24924;50.054;8.790;2022-07-17T17:01:53;35.50;42.40
38604;DHT22;24924;50.054;8.790;2022-07-17T17:04:19;35.40;44.00
38604;DHT22;24924;50.054;8.790;2022-07-17T17:06:45;34.10;43.90
38604;DHT22;24924;50.054;8.790;2022-07-17T17:09:11;34.30;43.60
38604;DHT22;24924;50.054;8.790;2022-07-17T17:11:38;33.30;44.20
38604;DHT22;24924;50.054;8.790;2022-07-17T17:14:04;32.50;46.40
38604;DHT22;24924;50.054;8.790;2022-07-17T17:16:30;32.10;46.60
38604;DHT22;24924;50.054;8.790;2022-07-17T17:18:56;31.50;48.40
38604;DHT22;24924;50.054;8.790;2022-07-17T17:21:22;31.40;46.10
38604;DHT22;24924;50.054;8.790;2022-07-17T17:23:48;30.80;46.90
38604;DHT22;24924;50.054;8.790;2022-07-17T17:26:14;30.30;48.40
38604;DHT22;24924;50.054;8.790;2022-07-17T17:28:40;29.90;53.70
38604;DHT22;24924;50.054;8.790;2022-07-17T17:31:06;29.40;49.90
38604;DHT22;24924;50.054;8.790;2022-07-17T17:33:32;29.10;51.90
38604;DHT22;24924;50.054;8.790;2022-07-17T17:35:57;28.90;51.80
38604;DHT22;24924;50.054;8.790;2022-07-17T17:38:23;28.70;52.90
38604;DHT22;24924;50.054;8.790;2022-07-17T17:40:49;28.50;52.60
38604;DHT22;24924;50.054;8.790;2022-07-17T17:43:15;28.40;50.80
38604;DHT22;24924;50.054;8.790;2022-07-17T17:45:41;28.40;51.70
38604;DHT22;24924;50.054;8.790;2022-07-17T17:48:08;28.30;52.30
38604;DHT22;24924;50.054;8.790;2022-07-17T17:50:36;28.10;51.30
38604;DHT22;24924;50.054;8.790;2022-07-17T17:53:02;28.10;52.40
38604;DHT22;24924;50.054;8.790;2022-07-17T17:55:27;27.90;52.50
38604;DHT22;24924;50.054;8.790;2022-07-17T17:57:53;27.80;52.60
38604;DHT22;24924;50.054;8.790;2022-07-17T18:00:22;27.70;52.50
38604;DHT22;24924;50.054;8.790;2022-07-17T18:02:48;27.80;52.50
38604;DHT22;24924;50.054;8.790;2022-07-17T18:05:14;27.60;54.20
38604;DHT22;24924;50.054;8.790;2022-07-17T18:07:41;27.50;53.50
38604;DHT22;24924;50.054;8.790;2022-07-17T18:10:08;27.20;56.30
38604;DHT22;24924;50.054;8.790;2022-07-17T18:12:34;27.10;55.50
38604;DHT22;24924;50.054;8.790;2022-07-17T18:15:00;27.00;55.80
38604;DHT22;24924;50.054;8.790;2022-07-17T18:17:26;26.90;55.10
38604;DHT22;24924;50.054;8.790;2022-07-17T18:19:52;27.00;55.50
38604;DHT22;24924;50.054;8.790;2022-07-17T18:22:17;26.90;56.90
38604;DHT22;24924;50.054;8.790;2022-07-17T18:24:43;26.80;55.80
38604;DHT22;24924;50.054;8.790;2022-07-17T18:27:09;26.70;55.80
38604;DHT22;24924;50.054;8.790;2022-07-17T18:29:37;26.60;57.30
38604;DHT22;24924;50.054;8.790;2022-07-17T18:32:03;26.60;56.30
38604;DHT22;24924;50.054;8.790;2022-07-17T18:34:34;26.80;53.60
38604;DHT22;24924;50.054;8.790;2022-07-17T18:37:00;26.60;57.80
38604;DHT22;24924;50.054;8.790;2022-07-17T18:39:25;26.30;57.70
38604;DHT22;24924;50.054;8.790;2022-07-17T18:41:51;26.10;59.50
38604;DHT22;24924;50.054;8.790;2022-07-17T18:44:17;26.00;57.40
38604;DHT22;24924;50.054;8.790;2022-07-17T18:46:43;25.90;57.90
38604;DHT22;24924;50.054;8.790;2022-07-17T18:49:09;25.80;61.00
38604;DHT22;24924;50.054;8.790;2022-07-17T18:51:35;25.70;60.40
38604;DHT22;24924;50.054;8.790;2022-07-17T18:54:00;25.50;61.70
38604;DHT22;24924;50.054;8.790;2022-07-17T18:56:26;25.40;59.80
38604;DHT22;24924;50.054;8.790;2022-07-17T18:58:52;25.30;65.00
38604;DHT22;24924;50.054;8.790;2022-07-17T19:01:18;25.20;66.10
38604;DHT22;24924;50.054;8.790;2022-07-17T19:03:43;25.00;70.30
38604;DHT22;24924;50.054;8.790;2022-07-17T19:06:09;24.90;61.70
38604;DHT22;24924;50.054;8.790;2022-07-17T19:08:36;24.80;62.40
38604;DHT22;24924;50.054;8.790;2022-07-17T19:11:05;24.60;67.50
38604;DHT22;24924;50.054;8.790;2022-07-17T19:13:31;24.60;62.90
38604;DHT22;24924;50.054;8.790;2022-07-17T19:15:57;24.40;64.20
38604;DHT22;24924;50.054;8.790;2022-07-17T19:18:23;24.30;64.60
38604;DHT22;24924;50.054;8.790;2022-07-17T19:20:49;24.20;62.10
38604;DHT22;24924;50.054;8.790;2022-07-17T19:23:15;24.30;61.40
38604;DHT22;24924;50.054;8.790;2022-07-17T19:25:42;24.20;62.80
38604;DHT22;24924;50.054;8.790;2022-07-17T19:28:11;24.20;63.00
38604;DHT22;24924;50.054;8.790;2022-07-17T19:30:38;24.00;64.90
38604;DHT22;24924;50.054;8.790;2022-07-17T19:33:06;23.90;70.90
38604;DHT22;24924;50.054;8.790;2022-07-17T19:35:31;23.60;68.00
38604;DHT22;24924;50.054;8.790;2022-07-17T19:37:57;23.50;67.30
38604;DHT22;24924;50.054;8.790;2022-07-17T19:40:23;23.50;65.20
38604;DHT22;24924;50.054;8.790;2022-07-17T19:42:50;23.40;65.70
38604;DHT22;24924;50.054;8.790;2022-07-17T19:45:16;23.20;66.50
38604;DHT22;24924;50.054;8.790;2022-07-17T19:47:43;23.00;70.30
38604;DHT22;24924;50.054;8.790;2022-07-17T19:50:09;22.80;72.70
38604;DHT22;24924;50.054;8.790;2022-07-17T19:52:36;22.60;75.00
38604;DHT22;24924;50.054;8.790;2022-07-17T19:55:02;22.50;75.50
